createdAt,value
2018-02-05T00:00:39.512Z,101186.02
2018-02-05T00:03:08.273Z,101189.82
2018-02-05T00:05:37.040Z,101185.99
2018-02-05T00:08:06.102Z,101181.69
2018-02-05T00:10:34.887Z,101179.07
2018-02-05T00:13:04.819Z,101185.53
2018-02-05T00:15:33.853Z,101181.98
2018-02-05T00:18:06.490Z,101173.38
2018-02-05T00:20:35.284Z,101177.67
2018-02-05T00:23:05.905Z,101175.12
2018-02-05T00:25:34.694Z,101182.02
2018-02-05T00:28:05.140Z,101182.02
2018-02-05T00:30:34.252Z,101175.89
2018-02-05T00:33:03.385Z,101179.37
2018-02-05T00:35:32.142Z,101185.87
2018-02-05T00:38:03.697Z,101185.41
2018-02-05T00:40:32.456Z,101193.11
2018-02-05T00:43:01.838Z,101193.16
2018-02-05T00:45:30.677Z,101200.05
2018-02-05T00:48:00.268Z,101197.44
2018-02-05T00:50:29.319Z,101204.01
2018-02-05T00:52:58.069Z,101202.28
2018-02-05T00:55:26.878Z,101207.38
2018-02-05T00:57:55.936Z,101206.52
2018-02-05T01:00:25.113Z,101208.23
2018-02-05T01:02:54.441Z,101214.68
2018-02-05T01:05:23.528Z,101209.00
2018-02-05T01:07:53.664Z,101214.27
2018-02-05T01:10:22.428Z,101217.23
2018-02-05T01:12:52.525Z,101214.20
2018-02-05T01:15:21.317Z,101218.53
2018-02-05T01:17:50.749Z,101215.47
2018-02-05T01:20:19.828Z,101216.36
2018-02-05T01:22:48.736Z,101219.41
2018-02-05T01:25:17.494Z,101225.42
2018-02-05T01:27:47.356Z,101227.57
2018-02-05T01:30:16.195Z,101223.63
2018-02-05T01:32:45.692Z,101227.18
2018-02-05T01:35:14.440Z,101227.09
2018-02-05T01:37:43.643Z,101232.77
2018-02-05T01:40:12.738Z,101236.72
2018-02-05T01:42:41.502Z,101240.20
2018-02-05T01:45:10.285Z,101236.66
2018-02-05T01:47:39.348Z,101234.06
2018-02-05T01:50:08.166Z,101244.08
2018-02-05T01:52:36.986Z,101243.23
2018-02-05T01:55:05.865Z,101239.34
2018-02-05T01:57:35.025Z,101237.22
2018-02-05T02:00:04.880Z,101237.59
2018-02-05T02:02:33.633Z,101237.64
2018-02-05T02:05:04.715Z,101239.44
2018-02-05T02:07:33.495Z,101248.10
2018-02-05T02:10:04.850Z,101239.88
2018-02-05T02:12:33.912Z,101237.73
2018-02-05T02:15:03.139Z,101237.33
2018-02-05T02:17:31.911Z,101238.63
2018-02-05T02:20:02.170Z,101242.14
2018-02-05T02:22:31.049Z,101236.94
2018-02-05T02:24:59.873Z,101242.11
2018-02-05T02:27:28.994Z,101244.70
2018-02-05T02:29:59.046Z,101244.31
2018-02-05T02:32:27.830Z,101252.10
2018-02-05T02:34:56.929Z,101251.70
2018-02-05T02:37:25.832Z,101249.52
2018-02-05T02:39:54.637Z,101251.28
2018-02-05T02:42:23.724Z,101257.78
2018-02-05T02:44:52.546Z,101262.11
2018-02-05T02:47:21.397Z,101259.09
2018-02-05T02:49:51.282Z,101265.16
2018-02-05T02:52:20.258Z,101268.18
2018-02-05T02:54:49.226Z,101270.77
2018-02-05T02:57:18.124Z,101271.63
2018-02-05T02:59:49.206Z,101275.93
2018-02-05T03:02:17.991Z,101275.50
2018-02-05T03:04:47.809Z,101271.22
2018-02-05T03:07:16.699Z,101269.95
2018-02-05T03:09:46.371Z,101274.72
2018-02-05T03:12:15.303Z,101273.80
2018-02-05T03:14:45.129Z,101273.38
2018-02-05T03:17:14.072Z,101277.26
2018-02-05T03:19:42.865Z,101273.83
2018-02-05T03:22:11.775Z,101272.09
2018-02-05T03:24:40.909Z,101271.65
2018-02-05T03:27:09.696Z,101272.01
2018-02-05T03:29:38.436Z,101268.16
2018-02-05T03:32:07.268Z,101268.59
2018-02-05T03:34:36.080Z,101275.05
2018-02-05T03:37:04.981Z,101275.52
2018-02-05T03:39:33.733Z,101281.14
2018-02-05T03:42:04.102Z,101281.61
2018-02-05T03:44:32.892Z,101282.88
2018-02-05T03:47:03.042Z,101280.32
2018-02-05T03:49:32.152Z,101293.69
2018-02-05T03:52:01.972Z,101284.59
2018-02-05T03:54:30.778Z,101285.05
2018-02-05T03:56:59.868Z,101290.30
2018-02-05T03:59:28.674Z,101290.34
2018-02-05T04:01:59.184Z,101290.79
2018-02-05T04:04:27.997Z,101290.38
2018-02-05T04:07:01.638Z,101293.81
2018-02-05T04:09:30.796Z,101298.16
2018-02-05T04:11:59.589Z,101302.05
2018-02-05T04:14:28.368Z,101297.33
2018-02-05T04:16:57.272Z,101298.27
2018-02-05T04:19:26.367Z,101300.41
2018-02-05T04:21:55.277Z,101305.61
2018-02-05T04:24:24.093Z,101306.47
2018-02-05T04:26:53.160Z,101306.45
2018-02-05T04:29:21.918Z,101304.30
2018-02-05T04:31:50.681Z,101309.48
2018-02-05T04:34:20.211Z,101309.07
2018-02-05T04:36:49.121Z,101309.95
2018-02-05T04:39:17.901Z,101311.22
2018-02-05T04:41:48.064Z,101311.68
2018-02-05T04:44:17.171Z,101316.84
2018-02-05T04:46:48.360Z,101309.94
2018-02-05T04:49:17.170Z,101312.09
2018-02-05T04:51:47.199Z,101319.46
2018-02-05T04:54:16.180Z,101318.17
2018-02-05T04:56:45.521Z,101313.02
2018-02-05T04:59:14.616Z,101319.05
2018-02-05T05:01:44.004Z,101316.00
2018-02-05T05:04:13.145Z,101313.00
2018-02-05T05:06:41.913Z,101313.88
2018-02-05T05:09:10.983Z,101312.17
2018-02-05T05:11:39.948Z,101315.22
2018-02-05T05:14:09.145Z,101315.20
2018-02-05T05:16:38.076Z,101316.52
2018-02-05T05:19:06.962Z,101318.69
2018-02-05T05:21:36.073Z,101318.25
2018-02-05T05:24:05.558Z,101323.89
2018-02-05T05:26:35.590Z,101320.43
2018-02-05T05:29:06.075Z,101320.88
2018-02-05T05:31:34.856Z,101326.95
2018-02-05T05:34:04.670Z,101325.23
2018-02-05T05:36:33.822Z,101326.11
2018-02-05T05:39:02.893Z,101329.95
2018-02-05T05:41:31.657Z,101331.22
2018-02-05T05:44:03.080Z,101335.55
2018-02-05T05:46:31.900Z,101333.38
2018-02-05T05:49:00.974Z,101332.51
2018-02-05T05:51:30.055Z,101332.09
2018-02-05T05:53:58.848Z,101337.70
2018-02-05T05:56:27.700Z,101341.61
2018-02-05T05:58:57.054Z,101338.13
2018-02-05T06:01:25.887Z,101337.72
2018-02-05T06:03:54.784Z,101344.65
2018-02-05T06:06:24.210Z,101346.41
2018-02-05T06:08:53.034Z,101347.70
2018-02-05T06:11:21.792Z,101351.16
2018-02-05T06:13:52.844Z,101352.47
2018-02-05T06:16:21.633Z,101357.23
2018-02-05T06:18:51.116Z,101360.68
2018-02-05T06:21:20.351Z,101360.27
2018-02-05T06:23:49.375Z,101360.27
2018-02-05T06:26:18.440Z,101358.96
2018-02-05T06:28:49.703Z,101361.12
2018-02-05T06:31:18.510Z,101355.49
2018-02-05T06:33:48.140Z,101357.62
2018-02-05T06:36:16.958Z,101369.70
2018-02-05T06:38:47.841Z,101361.91
2018-02-05T06:41:17.060Z,101364.47
2018-02-05T06:43:48.321Z,101363.63
2018-02-05T06:46:17.158Z,101373.11
2018-02-05T06:48:48.123Z,101370.09
2018-02-05T06:53:34.045Z,101378.73
2018-02-05T06:56:12.013Z,101370.54
2018-02-05T06:58:40.913Z,101381.79
2018-02-05T07:01:09.859Z,101387.39
2018-02-05T07:03:38.872Z,101388.27
2018-02-05T07:06:07.928Z,101399.89
2018-02-05T07:08:36.752Z,101399.48
2018-02-05T07:11:05.808Z,101398.59
2018-02-05T07:13:35.024Z,101412.44
2018-02-05T07:16:05.616Z,101407.69
2018-02-05T07:18:35.580Z,101411.55
2018-02-05T07:21:05.084Z,101404.20
2018-02-05T07:23:33.980Z,101405.92
2018-02-05T07:26:05.043Z,101406.36
2018-02-05T07:29:36.644Z,101403.33
2018-02-05T07:32:06.174Z,101405.48
2018-02-05T07:34:35.381Z,101393.83
2018-02-05T07:37:04.661Z,101397.72
2018-02-05T07:39:33.593Z,101397.27
2018-02-05T07:42:03.900Z,101398.05
2018-02-05T07:44:32.732Z,101398.12
2018-02-05T07:47:02.757Z,101382.08
2018-02-05T07:49:31.888Z,101391.59
2018-02-05T07:52:03.660Z,101391.66
2018-02-05T07:54:33.244Z,101386.33
2018-02-05T07:57:04.488Z,101388.81
2018-02-05T07:59:33.309Z,101390.34
2018-02-05T08:02:03.987Z,101390.98
2018-02-05T08:04:33.109Z,101388.63
2018-02-05T08:07:02.787Z,101396.36
2018-02-05T08:09:31.606Z,101388.75
2018-02-05T08:12:03.230Z,101394.83
2018-02-05T08:14:32.389Z,101386.88
2018-02-05T08:17:02.203Z,101394.02
2018-02-05T08:19:31.321Z,101387.69
2018-02-05T08:22:00.184Z,101379.25
2018-02-05T08:24:29.245Z,101387.95
2018-02-05T08:26:58.469Z,101385.19
2018-02-05T08:29:27.360Z,101383.22
2018-02-05T08:31:56.185Z,101375.05
2018-02-05T08:34:25.278Z,101371.73
2018-02-05T08:36:54.281Z,101374.03
2018-02-05T08:39:23.068Z,101372.53
2018-02-05T08:41:55.813Z,101362.16
2018-02-05T08:44:24.656Z,101362.08
2018-02-05T08:46:53.736Z,101365.87
2018-02-05T08:49:22.824Z,101367.84
2018-02-05T08:51:51.752Z,101371.50
2018-02-05T08:54:20.553Z,101366.77
2018-02-05T08:56:50.253Z,101360.47
2018-02-05T08:59:19.074Z,101364.95
2018-02-05T09:01:49.731Z,101361.77
2018-02-05T09:04:18.901Z,101365.98
2018-02-05T09:06:51.272Z,101362.47
2018-02-05T09:09:20.121Z,101365.41
2018-02-05T09:11:49.217Z,101368.52
2018-02-05T09:14:18.041Z,101376.14
2018-02-05T09:16:48.059Z,101365.61
2018-02-05T09:19:17.122Z,101370.52
2018-02-05T09:21:46.204Z,101377.14
2018-02-05T09:24:15.034Z,101370.56
2018-02-05T09:26:44.815Z,101368.51
2018-02-05T09:29:13.600Z,101365.48
2018-02-05T09:31:42.412Z,101365.05
2018-02-05T09:34:12.533Z,101362.42
2018-02-05T09:36:41.300Z,101363.56
2018-02-05T09:39:10.081Z,101364.42
2018-02-05T09:41:39.141Z,101359.45
2018-02-05T09:44:07.912Z,101353.89
2018-02-05T09:46:36.726Z,101364.89
2018-02-05T09:49:05.789Z,101359.53
2018-02-05T09:51:34.647Z,101350.04
2018-02-05T09:54:05.224Z,101354.72
2018-02-05T09:56:34.828Z,101352.16
2018-02-05T09:59:04.607Z,101348.75
2018-02-05T10:01:33.441Z,101346.08
2018-02-05T10:04:03.524Z,101351.66
2018-02-05T10:06:32.312Z,101346.25
2018-02-05T10:09:02.816Z,101354.12
2018-02-05T10:11:31.921Z,101350.80
2018-02-05T10:14:04.599Z,101347.12
2018-02-05T10:16:33.443Z,101350.78
2018-02-05T10:19:04.025Z,101352.42
2018-02-05T10:21:32.921Z,101357.55
2018-02-05T10:24:03.280Z,101350.38
2018-02-05T10:26:32.381Z,101352.66
2018-02-05T10:29:01.879Z,101353.32
2018-02-05T10:31:30.692Z,101354.82
2018-02-05T10:33:59.823Z,101343.47
2018-02-05T10:36:28.752Z,101344.19
2018-02-05T10:38:57.764Z,101339.34
2018-02-05T10:41:26.822Z,101336.89
2018-02-05T10:43:55.924Z,101334.45
2018-02-05T10:46:24.733Z,101334.47
2018-02-05T10:48:55.325Z,101329.23
2018-02-05T10:51:24.137Z,101329.27
2018-02-05T10:53:53.962Z,101328.72
2018-02-05T10:56:23.068Z,101321.67
2018-02-05T10:58:52.424Z,101319.86
2018-02-05T11:01:21.269Z,101321.89
2018-02-05T11:03:53.507Z,101310.17
2018-02-05T11:06:22.300Z,101304.81
2018-02-05T11:08:52.295Z,101297.14
2018-02-05T11:11:21.410Z,101295.20
2018-02-05T11:13:50.350Z,101293.58
2018-02-05T11:16:19.284Z,101287.63
2018-02-05T11:18:49.612Z,101288.17
2018-02-05T11:21:18.457Z,101285.17
2018-02-05T11:23:51.053Z,101278.53
2018-02-05T11:26:21.144Z,101276.14
2018-02-05T11:28:50.041Z,101265.30
2018-02-05T11:31:18.866Z,101262.00
2018-02-05T11:33:48.731Z,101259.80
2018-02-05T11:36:17.604Z,101248.49
2018-02-05T11:38:47.786Z,101251.32
2018-02-05T11:41:16.892Z,101251.97
2018-02-05T11:43:46.452Z,101246.98
2018-02-05T11:46:15.358Z,101246.45
2018-02-05T11:48:44.158Z,101248.83
2018-02-05T11:51:12.996Z,101250.61
2018-02-05T11:53:41.922Z,101243.22
2018-02-05T11:56:11.448Z,101238.72
2018-02-05T11:58:40.356Z,101236.72
2018-02-05T12:01:09.169Z,101233.77
2018-02-05T12:03:38.364Z,101232.81
2018-02-05T12:06:07.185Z,101223.84
2018-02-05T12:08:36.044Z,101222.20
2018-02-05T12:11:05.968Z,101223.52
2018-02-05T12:13:34.857Z,101217.61
2018-02-05T12:16:04.958Z,101219.63
2018-02-05T12:18:34.091Z,101219.56
2018-02-05T12:21:03.507Z,101228.60
2018-02-05T12:23:32.414Z,101219.01
2018-02-05T12:26:02.978Z,101210.14
2018-02-05T12:28:31.877Z,101214.31
2018-02-05T12:31:00.680Z,101207.45
2018-02-05T12:33:30.000Z,101211.17
2018-02-05T12:35:58.850Z,101203.79
2018-02-05T12:38:27.948Z,101212.40
2018-02-05T12:40:57.132Z,101209.55
2018-02-05T12:43:25.995Z,101208.14
2018-02-05T12:45:55.297Z,101205.36
2018-02-05T12:48:24.529Z,101203.72
2018-02-05T12:50:53.431Z,101197.67
2018-02-05T12:53:22.321Z,101196.61
2018-02-05T12:55:51.927Z,101199.41
2018-02-05T12:58:20.801Z,101196.88
2018-02-05T13:00:50.442Z,101201.38
2018-02-05T13:03:19.691Z,101194.33
2018-02-05T13:05:49.042Z,101200.45
2018-02-05T13:08:17.903Z,101197.99
2018-02-05T13:10:51.443Z,101191.90
2018-02-05T13:13:20.464Z,101180.89
2018-02-05T13:15:53.286Z,101192.67
2018-02-05T13:18:22.157Z,101199.05
2018-02-05T13:20:51.086Z,101187.59
2018-02-05T13:23:20.228Z,101179.89
2018-02-05T13:25:49.743Z,101180.30
2018-02-05T13:28:18.836Z,101175.91
2018-02-05T13:30:49.451Z,101168.20
2018-02-05T13:33:18.268Z,101178.39
2018-02-05T13:35:48.102Z,101180.45
2018-02-05T13:38:17.441Z,101178.34
2018-02-05T13:40:46.429Z,101172.91
2018-02-05T13:43:15.416Z,101174.95
2018-02-05T13:45:44.516Z,101171.72
2018-02-05T13:48:13.392Z,101171.03
2018-02-05T13:50:42.272Z,101171.21
2018-02-05T13:53:11.424Z,101174.50
2018-02-05T13:55:40.289Z,101166.56
2018-02-05T13:58:09.258Z,101166.70
2018-02-05T14:00:38.147Z,101177.41
2018-02-05T14:03:07.608Z,101171.19
2018-02-05T14:05:37.052Z,101170.33
2018-02-05T14:08:07.925Z,101165.16
2018-02-05T14:10:36.935Z,101159.71
2018-02-05T14:13:06.612Z,101155.21
2018-02-05T14:15:36.841Z,101155.92
2018-02-05T14:18:07.543Z,101148.05
2018-02-05T14:20:36.612Z,101143.95
2018-02-05T14:23:05.511Z,101152.52
2018-02-05T14:25:34.653Z,101138.23
2018-02-05T14:28:06.921Z,101144.23
2018-02-05T14:30:35.771Z,101150.17
2018-02-05T14:33:07.546Z,101143.38
2018-02-05T14:35:36.500Z,101148.42
2018-02-05T14:38:06.326Z,101151.68
2018-02-05T14:40:35.387Z,101144.09
2018-02-05T14:43:06.856Z,101145.91
2018-02-05T14:45:36.109Z,101142.17
2018-02-05T14:48:05.836Z,101137.75
2018-02-05T14:50:34.596Z,101138.06
2018-02-05T14:53:04.249Z,101140.35
2018-02-05T14:55:33.084Z,101132.81
2018-02-05T14:58:03.683Z,101128.27
2018-02-05T15:00:32.649Z,101131.95
2018-02-05T15:03:02.322Z,101132.63
2018-02-05T15:05:31.504Z,101125.51
2018-02-05T15:08:00.333Z,101117.97
2018-02-05T15:10:29.576Z,101122.11
2018-02-05T15:12:58.463Z,101119.89
2018-02-05T15:15:27.322Z,101124.83
2018-02-05T15:17:56.190Z,101120.79
2018-02-05T15:20:25.185Z,101122.75
2018-02-05T15:22:56.275Z,101115.78
2018-02-05T15:25:25.837Z,101110.69
2018-02-05T15:27:55.561Z,101115.05
2018-02-05T15:30:24.457Z,101119.63
2018-02-05T15:32:54.748Z,101118.95
2018-02-05T15:35:23.852Z,101115.86
2018-02-05T15:37:52.714Z,101105.48
2018-02-05T15:40:21.986Z,101110.56
2018-02-05T15:42:51.416Z,101113.03
2018-02-05T15:45:20.546Z,101107.14
2018-02-05T15:47:50.136Z,101100.77
2018-02-05T15:50:19.048Z,101102.59
2018-02-05T15:52:49.450Z,101101.48
2018-02-05T15:55:18.872Z,101102.15
2018-02-05T15:57:52.663Z,101101.11
2018-02-05T16:00:21.520Z,101103.72
2018-02-05T16:02:51.219Z,101108.63
2018-02-05T16:05:20.093Z,101108.32
2018-02-05T16:07:50.728Z,101104.11
2018-02-05T16:10:19.553Z,101109.40
2018-02-05T16:12:52.354Z,101104.41
2018-02-05T16:15:21.572Z,101105.00
2018-02-05T16:17:51.364Z,101111.75
2018-02-05T16:20:20.128Z,101107.48
2018-02-05T16:22:52.831Z,101104.53
2018-02-05T16:25:21.623Z,101104.17
2018-02-05T16:27:50.564Z,101105.05
2018-02-05T16:30:19.776Z,101104.61
2018-02-05T16:32:49.909Z,101104.22
2018-02-05T16:35:18.705Z,101102.31
2018-02-05T16:37:48.896Z,101109.44
2018-02-05T16:40:19.721Z,101108.64
2018-02-05T16:42:53.831Z,101116.04
2018-02-05T16:45:23.429Z,101108.31
2018-02-05T16:47:55.389Z,101123.98
2018-02-05T16:50:24.780Z,101115.88
2018-02-05T16:52:55.189Z,101114.58
2018-02-05T16:55:24.681Z,101115.74
2018-02-05T16:57:53.585Z,101114.55
2018-02-05T17:00:22.993Z,101120.70
2018-02-05T17:02:51.939Z,101114.27
2018-02-05T17:05:20.796Z,101113.30
2018-02-05T17:07:51.433Z,101120.61
2018-02-05T17:10:21.046Z,101123.66
2018-02-05T17:12:50.129Z,101128.09
2018-02-05T17:15:19.260Z,101132.45
2018-02-05T17:17:50.558Z,101134.53
2018-02-05T17:20:19.781Z,101136.23
2018-02-05T17:22:50.457Z,101140.06
2018-02-05T17:25:19.350Z,101136.17
2018-02-05T17:27:49.814Z,101139.70
2018-02-05T17:30:19.071Z,101138.83
2018-02-05T17:32:48.877Z,101135.77
2018-02-05T17:35:18.729Z,101138.39
2018-02-05T17:37:49.869Z,101134.12
2018-02-05T17:40:18.637Z,101134.12
2018-02-05T17:42:48.952Z,101126.80
2018-02-05T17:45:18.046Z,101123.02
2018-02-05T17:47:48.547Z,101132.11
2018-02-05T17:50:17.509Z,101130.41
2018-02-05T17:52:47.380Z,101128.70
2018-02-05T17:55:16.845Z,101114.84
2018-02-05T17:57:45.619Z,101121.87
2018-02-05T18:00:14.816Z,101120.25
2018-02-05T18:02:43.692Z,101120.73
2018-02-05T18:05:12.494Z,101123.30
2018-02-05T18:07:41.702Z,101124.77
2018-02-05T18:10:10.529Z,101116.20
2018-02-05T18:12:39.367Z,101121.47
2018-02-05T18:15:08.893Z,101120.49
2018-02-05T18:17:38.339Z,101112.70
2018-02-05T18:20:07.657Z,101111.84
2018-02-05T18:22:37.023Z,101113.25
2018-02-05T18:25:06.993Z,101110.24
2018-02-05T18:27:36.291Z,101109.81
2018-02-05T18:30:07.728Z,101108.11
2018-02-05T18:32:38.642Z,101107.67
2018-02-05T18:35:08.973Z,101108.62
2018-02-05T18:37:37.850Z,101111.61
2018-02-05T18:40:15.363Z,101107.75
2018-02-05T18:42:49.976Z,101106.05
2018-02-05T18:45:20.595Z,101110.34
2018-02-05T18:47:54.447Z,101105.66
2018-02-05T18:50:23.241Z,101097.93
2018-02-05T18:52:54.328Z,101095.77
2018-02-05T18:55:23.388Z,101099.76
2018-02-05T18:57:55.387Z,101099.35
2018-02-05T19:00:35.286Z,101109.31
2018-02-05T19:03:08.748Z,101105.04
2018-02-05T19:05:37.513Z,101103.83
2018-02-05T19:08:06.410Z,101093.95
2018-02-05T19:10:35.589Z,101087.91
2018-02-05T19:13:06.740Z,101090.00
2018-02-05T19:15:35.982Z,101091.80
2018-02-05T19:18:05.888Z,101089.64
2018-02-05T19:20:34.658Z,101092.25
2018-02-05T19:23:05.733Z,101079.28
2018-02-05T19:25:35.120Z,101081.50
2018-02-05T19:28:05.410Z,101082.81
2018-02-05T19:30:34.468Z,101084.97
2018-02-05T19:33:03.993Z,101079.88
2018-02-05T19:35:32.768Z,101092.84
2018-02-05T19:38:03.048Z,101098.41
2018-02-05T19:40:31.836Z,101102.77
2018-02-05T19:43:02.354Z,101099.71
2018-02-05T19:45:31.505Z,101101.03
2018-02-05T19:48:00.296Z,101096.34
2018-02-05T19:50:29.084Z,101100.69
2018-02-05T19:52:59.322Z,101103.44
2018-02-05T19:55:28.121Z,101099.47
2018-02-05T19:57:57.404Z,101102.87
2018-02-05T20:00:26.170Z,101104.09
2018-02-05T20:02:55.034Z,101105.41
2018-02-05T20:05:24.184Z,101107.55
2018-02-05T20:07:54.608Z,101104.61
2018-02-05T20:10:23.413Z,101103.30
2018-02-05T20:12:52.781Z,101098.55
2018-02-05T20:15:21.662Z,101099.39
2018-02-05T20:17:51.775Z,101102.90
2018-02-05T20:20:20.849Z,101105.06
2018-02-05T20:22:51.274Z,101098.98
2018-02-05T20:25:20.268Z,101092.97
2018-02-05T20:27:50.900Z,101092.17
2018-02-05T20:30:19.716Z,101089.52
2018-02-05T20:32:49.560Z,101093.50
2018-02-05T20:35:20.132Z,101082.67
2018-02-05T20:37:52.556Z,101083.58
2018-02-05T20:40:23.309Z,101079.28
2018-02-05T20:42:54.540Z,101084.87
2018-02-05T20:45:23.506Z,101083.19
2018-02-05T20:47:52.919Z,101084.89
2018-02-05T20:50:22.950Z,101083.63
2018-02-05T20:52:52.077Z,101084.87
2018-02-05T20:55:20.886Z,101088.74
2018-02-05T20:57:51.419Z,101089.17
2018-02-05T21:00:20.414Z,101082.69
2018-02-05T21:02:52.805Z,101079.69
2018-02-05T21:05:22.237Z,101090.52
2018-02-05T21:07:52.096Z,101084.46
2018-02-05T21:10:20.976Z,101085.71
2018-02-05T21:12:51.153Z,101080.53
2018-02-05T21:15:20.091Z,101084.41
2018-02-05T21:17:49.874Z,101077.51
2018-02-05T21:20:19.120Z,101073.17
2018-02-05T21:22:48.818Z,101065.45
2018-02-05T21:25:17.921Z,101064.22
2018-02-05T21:27:47.466Z,101064.22
2018-02-05T21:30:16.272Z,101062.56
2018-02-05T21:32:45.085Z,101056.91
2018-02-05T21:35:14.350Z,101053.86
2018-02-05T21:37:43.236Z,101061.25
2018-02-05T21:40:12.214Z,101053.00
2018-02-05T21:42:41.338Z,101048.25
2018-02-05T21:45:10.121Z,101057.37
2018-02-05T21:47:39.005Z,101050.02
2018-02-05T21:50:08.204Z,101053.91
2018-02-05T21:52:37.272Z,101043.50
2018-02-05T21:55:06.121Z,101043.52
2018-02-05T21:57:35.325Z,101035.77
2018-02-05T22:00:04.960Z,101031.44
2018-02-05T22:02:33.797Z,101020.70
2018-02-05T22:05:04.546Z,101023.72
2018-02-05T22:07:33.554Z,101031.09
2018-02-05T22:10:05.470Z,101028.88
2018-02-05T22:12:34.637Z,101025.38
2018-02-05T22:15:04.847Z,101015.88
2018-02-05T22:17:33.650Z,101024.92
2018-02-05T22:20:03.686Z,101007.66
2018-02-05T22:22:32.534Z,101006.00
2018-02-05T22:25:01.477Z,101006.00
2018-02-05T22:27:31.668Z,101002.13
2018-02-05T22:30:00.574Z,101002.48
2018-02-05T22:32:29.426Z,100998.62
2018-02-05T22:34:58.522Z,101000.83
2018-02-05T22:37:27.332Z,100996.94
2018-02-05T22:39:56.119Z,100995.59
2018-02-05T22:42:25.234Z,100997.80
2018-02-05T22:44:54.413Z,100996.53
2018-02-05T22:47:23.294Z,100991.86
2018-02-05T22:49:52.527Z,100990.59
2018-02-05T22:52:21.370Z,100979.72
2018-02-05T22:54:51.284Z,100983.98
2018-02-05T22:57:20.372Z,100981.80
2018-02-05T22:59:50.204Z,100979.24
2018-02-05T23:02:19.017Z,100972.86
2018-02-05T23:04:48.640Z,100971.95
2018-02-05T23:07:17.471Z,100969.36
2018-02-05T23:09:46.416Z,100960.70
2018-02-05T23:12:15.545Z,100959.80
2018-02-05T23:14:44.574Z,100966.69
2018-02-05T23:17:13.680Z,100960.61
2018-02-05T23:19:44.223Z,100960.61
2018-02-05T23:22:14.000Z,100958.98
2018-02-05T23:24:43.044Z,100950.27
2018-02-05T23:27:13.049Z,100940.82
2018-02-05T23:29:41.869Z,100943.32
2018-02-05T23:32:10.713Z,100938.54
2018-02-05T23:34:39.946Z,100930.81
2018-02-05T23:37:09.360Z,100926.95
2018-02-05T23:39:38.192Z,100921.36
2018-02-05T23:42:07.412Z,100911.42
2018-02-05T23:44:36.180Z,100915.77
2018-02-05T23:47:05.021Z,100920.06
2018-02-05T23:49:34.108Z,100914.91
2018-02-05T23:52:05.182Z,100922.63
2018-02-05T23:54:34.190Z,100911.86
2018-02-05T23:57:05.947Z,100910.95
2018-02-05T23:59:35.966Z,100910.44
